createdAt,value
2019-02-16T00:02:01.783Z,14.93
2019-02-16T00:04:33.055Z,14.57
2019-02-16T00:07:04.238Z,16.00
2019-02-16T00:09:35.519Z,14.60
2019-02-16T00:12:06.410Z,15.43
2019-02-16T00:14:37.644Z,15.90
2019-02-16T00:17:08.847Z,15.57
2019-02-16T00:19:40.065Z,16.03
2019-02-16T00:22:11.230Z,15.00
2019-02-16T00:24:42.431Z,15.77
2019-02-16T00:27:13.621Z,15.17
2019-02-16T00:29:44.952Z,15.60
2019-02-16T00:32:16.129Z,15.67
2019-02-16T00:34:47.331Z,14.17
2019-02-16T00:37:18.516Z,15.07
2019-02-16T00:39:49.682Z,14.60
2019-02-16T00:42:20.896Z,14.63
2019-02-16T00:44:52.062Z,14.23
2019-02-16T00:47:23.233Z,14.93
2019-02-16T00:49:54.451Z,14.83
2019-02-16T00:52:25.637Z,15.10
2019-02-16T00:54:56.809Z,13.40
2019-02-16T00:57:28.020Z,14.47
2019-02-16T00:59:59.278Z,14.93
2019-02-16T01:02:30.539Z,13.90
2019-02-16T01:05:01.800Z,14.17
2019-02-16T01:07:33.086Z,14.40
2019-02-16T01:10:04.480Z,14.00
2019-02-16T01:12:35.800Z,14.10
2019-02-16T01:15:08.933Z,14.47
2019-02-16T01:17:40.136Z,14.00
2019-02-16T01:20:14.060Z,14.17
2019-02-16T01:22:45.244Z,12.97
2019-02-16T01:25:16.381Z,13.77
2019-02-16T01:27:47.727Z,14.30
2019-02-16T01:30:18.908Z,13.50
2019-02-16T01:32:50.229Z,13.73
2019-02-16T01:35:21.441Z,13.37
2019-02-16T01:37:52.814Z,13.87
2019-02-16T01:40:24.019Z,12.97
2019-02-16T01:42:55.463Z,13.77
2019-02-16T01:45:26.667Z,14.00
2019-02-16T01:47:57.910Z,15.20
2019-02-16T01:50:29.098Z,14.23
2019-02-16T01:53:00.487Z,14.10
2019-02-16T01:55:31.664Z,14.80
2019-02-16T01:58:03.008Z,15.03
2019-02-16T02:00:34.189Z,13.90
2019-02-16T02:03:05.517Z,14.63
2019-02-16T02:05:36.725Z,14.53
2019-02-16T02:08:07.915Z,14.10
2019-02-16T02:10:39.479Z,14.33
2019-02-16T02:13:11.190Z,14.47
2019-02-16T02:15:42.364Z,13.90
2019-02-16T02:18:13.730Z,13.77
2019-02-16T02:20:45.109Z,14.30
2019-02-16T02:23:16.388Z,15.13
2019-02-16T02:25:47.705Z,14.60
2019-02-16T02:28:18.882Z,14.67
2019-02-16T02:30:50.170Z,13.70
2019-02-16T02:33:21.403Z,14.47
2019-02-16T02:35:52.614Z,14.70
2019-02-16T02:38:23.809Z,13.93
2019-02-16T02:40:55.091Z,13.80
2019-02-16T02:43:27.469Z,13.87
2019-02-16T02:45:58.638Z,14.33
2019-02-16T02:48:29.851Z,15.43
2019-02-16T02:51:01.034Z,15.33
2019-02-16T02:53:32.220Z,14.43
2019-02-16T02:56:03.460Z,14.57
2019-02-16T02:58:34.656Z,15.07
2019-02-16T03:01:05.942Z,14.67
2019-02-16T03:03:38.249Z,14.87
2019-02-16T03:06:09.492Z,15.13
2019-02-16T03:08:40.795Z,14.60
2019-02-16T03:11:12.121Z,14.87
2019-02-16T03:13:43.539Z,14.93
2019-02-16T03:16:14.767Z,13.97
2019-02-16T03:18:46.002Z,15.37
2019-02-16T03:21:17.206Z,14.73
2019-02-16T03:23:48.416Z,15.33
2019-02-16T03:27:09.611Z,14.27
2019-02-16T03:30:08.645Z,14.80
2019-02-16T03:33:16.086Z,13.90
2019-02-16T03:36:27.584Z,14.77
2019-02-16T03:39:04.441Z,14.27
2019-02-16T03:41:35.830Z,14.67
2019-02-16T03:44:07.113Z,15.40
2019-02-16T03:46:38.390Z,14.50
2019-02-16T03:49:09.693Z,15.90
2019-02-16T03:51:40.941Z,14.93
2019-02-16T03:54:12.235Z,14.97
2019-02-16T03:56:43.462Z,16.87
2019-02-16T03:59:14.704Z,16.07
2019-02-16T04:01:45.911Z,15.57
2019-02-16T04:04:17.100Z,14.97
2019-02-16T04:06:48.384Z,16.47
2019-02-16T04:09:19.581Z,15.90
2019-02-16T04:11:57.087Z,15.47
2019-02-16T04:14:28.284Z,16.40
2019-02-16T04:16:59.507Z,15.50
2019-02-16T04:19:30.716Z,15.60
2019-02-16T04:22:01.903Z,16.23
2019-02-16T04:24:33.298Z,15.90
2019-02-16T04:27:04.537Z,16.67
2019-02-16T04:29:35.830Z,15.50
2019-02-16T04:32:08.141Z,15.97
2019-02-16T04:34:39.437Z,16.23
2019-02-16T04:37:10.755Z,17.07
2019-02-16T04:39:41.952Z,16.87
2019-02-16T04:42:13.237Z,15.80
2019-02-16T04:44:44.506Z,16.93
2019-02-16T04:47:17.009Z,15.83
2019-02-16T04:49:49.846Z,16.03
2019-02-16T04:52:21.017Z,15.60
2019-02-16T04:54:52.160Z,15.27
2019-02-16T04:57:23.483Z,16.33
2019-02-16T04:59:54.803Z,16.00
2019-02-16T05:02:25.980Z,15.77
2019-02-16T05:04:57.267Z,15.63
2019-02-16T05:07:28.542Z,16.23
2019-02-16T05:09:59.786Z,16.00
2019-02-16T05:12:31.003Z,16.67
2019-02-16T05:15:02.178Z,16.63
2019-02-16T05:17:33.393Z,16.43
2019-02-16T05:20:04.638Z,17.13
2019-02-16T05:22:44.205Z,16.83
2019-02-16T05:25:08.698Z,15.87
2019-02-16T05:27:39.920Z,15.63
2019-02-16T05:30:11.140Z,16.37
2019-02-16T05:32:42.319Z,17.30
2019-02-16T05:35:13.581Z,16.17
2019-02-16T05:37:44.748Z,16.40
2019-02-16T05:40:16.006Z,17.30
2019-02-16T05:42:47.211Z,18.60
2019-02-16T05:45:18.424Z,20.70
2019-02-16T05:47:50.579Z,17.10
2019-02-16T05:50:21.798Z,17.73
2019-02-16T05:52:54.643Z,17.10
2019-02-16T05:55:26.049Z,17.13
2019-02-16T05:57:57.222Z,16.93
2019-02-16T06:00:30.423Z,16.30
2019-02-16T06:03:01.616Z,17.33
2019-02-16T06:05:32.779Z,16.47
2019-02-16T06:08:04.154Z,16.00
2019-02-16T06:10:35.276Z,16.80
2019-02-16T06:13:06.508Z,16.20
2019-02-16T06:15:38.042Z,18.33
2019-02-16T06:18:09.331Z,17.00
2019-02-16T06:20:40.502Z,16.13
2019-02-16T06:23:11.687Z,16.87
2019-02-16T06:25:42.972Z,16.00
2019-02-16T06:28:14.169Z,15.60
2019-02-16T06:30:45.467Z,15.17
2019-02-16T06:33:16.666Z,15.23
2019-02-16T06:35:53.954Z,16.20
2019-02-16T06:38:25.276Z,15.77
2019-02-16T06:40:56.581Z,15.03
2019-02-16T06:43:27.783Z,19.37
2019-02-16T06:46:00.776Z,17.50
2019-02-16T06:48:31.890Z,15.67
2019-02-16T06:51:03.109Z,15.97
2019-02-16T06:53:34.270Z,16.07
2019-02-16T06:56:27.614Z,15.17
2019-02-16T06:58:58.818Z,15.57
2019-02-16T07:01:30.080Z,15.90
2019-02-16T07:04:01.342Z,15.60
2019-02-16T07:06:32.642Z,16.47
2019-02-16T07:09:05.340Z,15.23
2019-02-16T07:11:36.542Z,15.63
2019-02-16T07:14:10.258Z,15.33
2019-02-16T07:16:51.672Z,15.67
2019-02-16T07:19:25.884Z,16.27
2019-02-16T07:21:57.141Z,15.37
2019-02-16T07:24:28.498Z,15.70
2019-02-16T07:26:59.886Z,15.23
2019-02-16T07:29:31.169Z,14.50
2019-02-16T07:32:02.398Z,14.97
2019-02-16T07:34:33.594Z,15.40
2019-02-16T07:37:04.735Z,14.93
2019-02-16T07:39:35.975Z,15.23
2019-02-16T07:42:07.232Z,14.87
2019-02-16T07:45:10.197Z,14.73
2019-02-16T07:47:57.064Z,14.60
2019-02-16T07:50:36.559Z,14.40
2019-02-16T07:53:14.526Z,14.47
2019-02-16T07:55:49.793Z,14.60
2019-02-16T07:58:46.106Z,15.60
2019-02-16T08:01:23.346Z,13.30
2019-02-16T08:04:13.587Z,14.10
2019-02-16T08:06:53.567Z,15.13
2019-02-16T08:09:33.627Z,14.80
2019-02-16T08:12:20.930Z,14.57
2019-02-16T08:15:06.149Z,14.77
2019-02-16T08:17:55.339Z,14.27
2019-02-16T08:20:34.088Z,14.83
2019-02-16T08:23:27.306Z,14.77
2019-02-16T08:26:16.313Z,14.57
2019-02-16T08:29:25.612Z,15.37
2019-02-16T08:32:13.014Z,14.17
2019-02-16T08:34:58.906Z,14.33
2019-02-16T08:37:52.959Z,14.30
2019-02-16T08:40:37.801Z,14.20
2019-02-16T08:43:34.839Z,13.83
2019-02-16T08:46:31.185Z,14.00
2019-02-16T08:49:21.527Z,13.43
2019-02-16T08:52:11.670Z,14.63
2019-02-16T08:54:59.177Z,14.10
2019-02-16T08:57:48.577Z,13.87
2019-02-16T09:00:36.887Z,13.90
2019-02-16T09:03:27.043Z,12.80
2019-02-16T09:06:06.582Z,13.33
2019-02-16T09:08:55.685Z,13.80
2019-02-16T09:11:48.106Z,12.90
2019-02-16T09:14:41.209Z,12.60
2019-02-16T09:17:30.143Z,13.10
2019-02-16T09:20:19.061Z,13.37
2019-02-16T09:23:06.626Z,12.53
2019-02-16T09:26:08.841Z,12.63
2019-02-16T09:28:59.056Z,12.17
2019-02-16T09:31:48.224Z,12.67
2019-02-16T09:34:45.927Z,13.27
2019-02-16T09:37:39.001Z,13.60
2019-02-16T09:40:32.030Z,12.20
2019-02-16T09:43:17.237Z,11.90
2019-02-16T09:46:06.131Z,12.50
2019-02-16T09:49:11.420Z,12.60
2019-02-16T09:51:54.541Z,10.90
2019-02-16T09:54:42.377Z,11.70
2019-02-16T09:57:35.571Z,10.77
2019-02-16T10:00:26.233Z,12.43
2019-02-16T10:03:10.438Z,10.87
2019-02-16T10:05:58.403Z,12.17
2019-02-16T10:08:47.329Z,11.77
2019-02-16T10:11:24.217Z,11.57
2019-02-16T10:14:33.067Z,10.90
2019-02-16T10:17:11.806Z,11.60
2019-02-16T10:19:49.952Z,12.07
2019-02-16T10:22:37.515Z,11.27
2019-02-16T10:25:33.905Z,10.67
2019-02-16T10:28:33.639Z,10.77
2019-02-16T10:31:26.973Z,10.57
2019-02-16T10:34:14.656Z,9.73
2019-02-16T10:36:56.565Z,9.93
2019-02-16T10:39:34.648Z,9.67
2019-02-16T10:42:22.618Z,9.55
2019-02-16T10:45:02.762Z,9.83
2019-02-16T10:47:50.470Z,8.77
2019-02-16T10:50:39.328Z,9.67
2019-02-16T10:53:29.560Z,9.73
2019-02-16T10:56:13.216Z,10.00
2019-02-16T10:59:03.338Z,9.00
2019-02-16T11:01:41.626Z,9.17
2019-02-16T11:04:37.883Z,8.58
2019-02-16T11:07:21.042Z,8.67
2019-02-16T11:10:20.167Z,8.37
2019-02-16T11:13:13.116Z,8.40
2019-02-16T11:16:01.873Z,8.35
2019-02-16T11:18:39.563Z,8.25
2019-02-16T11:21:36.606Z,6.85
2019-02-16T11:24:12.554Z,8.68
2019-02-16T11:26:57.004Z,8.60
2019-02-16T11:29:46.121Z,7.58
2019-02-16T11:32:39.351Z,8.43
2019-02-16T11:35:32.355Z,8.43
2019-02-16T11:38:12.101Z,9.05
2019-02-16T11:40:49.940Z,10.70
2019-02-16T11:43:41.038Z,8.65
2019-02-16T11:46:40.429Z,8.73
2019-02-16T11:49:36.695Z,8.28
2019-02-16T11:52:32.890Z,9.23
2019-02-16T11:55:41.411Z,8.75
2019-02-16T11:58:20.439Z,8.28
2019-02-16T12:01:10.710Z,8.38
2019-02-16T12:04:06.766Z,7.42
2019-02-16T12:07:03.144Z,7.92
2019-02-16T12:09:52.032Z,7.50
2019-02-16T12:12:41.040Z,6.65
2019-02-16T12:15:39.501Z,6.55
2019-02-16T12:18:23.431Z,7.03
2019-02-16T12:21:16.394Z,7.17
2019-02-16T12:24:09.545Z,6.67
2019-02-16T12:26:58.714Z,6.25
2019-02-16T12:29:38.616Z,7.40
2019-02-16T12:32:35.715Z,6.97
2019-02-16T12:35:29.210Z,7.17
2019-02-16T12:38:20.419Z,6.20
2019-02-16T12:41:29.145Z,6.05
2019-02-16T12:44:22.294Z,5.92
2019-02-16T12:47:05.153Z,6.10
2019-02-16T12:50:04.537Z,5.30
2019-02-16T12:53:06.813Z,5.95
2019-02-16T12:56:02.899Z,5.78
2019-02-16T12:58:59.189Z,5.53
2019-02-16T13:01:55.644Z,5.47
2019-02-16T13:04:58.123Z,5.30
2019-02-16T13:07:37.338Z,5.70
2019-02-16T13:10:19.994Z,6.00
2019-02-16T13:13:07.554Z,4.87
2019-02-16T13:15:53.294Z,4.58
2019-02-16T13:18:44.438Z,4.50
2019-02-16T13:21:30.526Z,4.87
2019-02-16T13:24:11.622Z,4.75
2019-02-16T13:27:01.867Z,4.70
2019-02-16T13:29:52.016Z,4.53
2019-02-16T13:32:51.062Z,4.60
2019-02-16T13:35:39.660Z,4.20
2019-02-16T13:38:33.938Z,4.22
2019-02-16T13:41:10.615Z,4.15
2019-02-16T13:44:04.700Z,4.08
2019-02-16T13:47:04.053Z,3.52
2019-02-16T13:49:41.076Z,4.17
2019-02-16T13:52:18.044Z,3.72
2019-02-16T13:55:15.728Z,3.05
2019-02-16T13:58:14.845Z,3.37
2019-02-16T14:01:23.195Z,3.12
2019-02-16T14:04:09.119Z,3.47
2019-02-16T14:06:47.855Z,3.15
2019-02-16T14:09:35.727Z,3.12
2019-02-16T14:12:25.944Z,3.10
2019-02-16T14:15:31.426Z,2.98
2019-02-16T14:18:02.651Z,2.65
2019-02-16T14:20:33.865Z,3.90
2019-02-16T14:23:05.109Z,2.85
2019-02-16T14:25:46.685Z,3.05
2019-02-16T14:28:17.954Z,2.92
2019-02-16T14:30:49.163Z,2.95
2019-02-16T14:33:20.409Z,3.30
2019-02-16T14:35:51.611Z,2.83
2019-02-16T14:38:40.277Z,2.80
2019-02-16T14:41:11.482Z,2.65
2019-02-16T14:43:42.694Z,3.15
2019-02-16T14:46:13.887Z,3.12
2019-02-16T14:48:45.181Z,2.55
2019-02-16T14:51:17.250Z,2.72
2019-02-16T14:53:48.911Z,2.72
2019-02-16T14:56:20.411Z,2.47
2019-02-16T14:58:51.775Z,2.60
2019-02-16T15:01:24.439Z,2.50
2019-02-16T15:03:56.178Z,2.92
2019-02-16T15:06:28.395Z,3.02
2019-02-16T15:09:00.292Z,3.10
2019-02-16T15:11:33.959Z,3.15
2019-02-16T15:14:05.769Z,2.70
2019-02-16T15:16:37.267Z,3.08
2019-02-16T15:19:09.556Z,2.87
2019-02-16T15:21:40.725Z,3.20
2019-02-16T15:24:11.920Z,2.83
2019-02-16T15:26:43.141Z,3.10
2019-02-16T15:29:14.323Z,3.15
2019-02-16T15:31:45.684Z,3.00
2019-02-16T15:34:16.945Z,3.25
2019-02-16T15:36:48.172Z,3.52
2019-02-16T15:39:19.337Z,2.75
2019-02-16T15:41:50.641Z,3.45
2019-02-16T15:44:22.247Z,3.42
2019-02-16T15:46:53.536Z,3.15
2019-02-16T15:49:24.831Z,3.10
2019-02-16T15:51:56.039Z,3.33
2019-02-16T15:54:27.308Z,2.98
2019-02-16T15:56:58.527Z,3.50
2019-02-16T15:59:35.264Z,3.47
2019-02-16T16:02:03.283Z,3.30
2019-02-16T16:04:34.528Z,3.50
2019-02-16T16:07:11.106Z,3.70
2019-02-16T16:10:15.022Z,3.55
2019-02-16T16:12:59.108Z,4.12
2019-02-16T16:15:55.147Z,3.45
2019-02-16T16:18:51.147Z,3.67
2019-02-16T16:21:41.602Z,4.28
2019-02-16T16:24:25.531Z,3.87
2019-02-16T16:27:34.135Z,3.98
2019-02-16T16:30:14.836Z,3.87
2019-02-16T16:32:54.492Z,4.67
2019-02-16T16:35:46.810Z,4.47
2019-02-16T16:38:52.276Z,4.78
2019-02-16T16:41:42.579Z,4.87
2019-02-16T16:44:37.285Z,5.47
2019-02-16T16:47:39.250Z,6.10
2019-02-16T16:50:30.060Z,5.65
2019-02-16T16:53:38.894Z,6.42
2019-02-16T16:56:30.246Z,5.60
2019-02-16T16:59:32.575Z,5.87
2019-02-16T17:02:28.906Z,10.15
2019-02-16T17:05:25.376Z,7.55
2019-02-16T17:08:07.814Z,7.33
2019-02-16T17:11:04.139Z,7.12
2019-02-16T17:14:03.370Z,11.35
2019-02-16T17:16:50.019Z,11.68
2019-02-16T17:19:30.036Z,9.25
2019-02-16T17:22:12.119Z,10.65
2019-02-16T17:25:01.207Z,11.65
2019-02-16T17:27:54.100Z,11.15
2019-02-16T17:30:48.090Z,11.08
2019-02-16T17:33:47.162Z,10.88
2019-02-16T17:36:36.049Z,9.90
2019-02-16T17:39:17.921Z,8.58
2019-02-16T17:42:05.768Z,9.70
2019-02-16T17:44:57.244Z,11.15
2019-02-16T17:47:46.333Z,9.65
2019-02-16T17:50:27.810Z,9.10
2019-02-16T17:53:11.544Z,8.63
2019-02-16T17:56:06.528Z,9.95
2019-02-16T17:58:46.672Z,8.60
2019-02-16T18:01:37.011Z,8.78
2019-02-16T18:04:33.407Z,10.05
2019-02-16T18:07:35.604Z,7.90
2019-02-16T18:10:15.687Z,8.05
2019-02-16T18:13:06.053Z,8.00
2019-02-16T18:15:59.350Z,8.90
2019-02-16T18:18:55.743Z,7.92
2019-02-16T18:21:52.016Z,8.78
2019-02-16T18:24:29.775Z,8.73
2019-02-16T18:27:21.216Z,8.90
2019-02-16T18:30:07.795Z,9.80
2019-02-16T18:32:56.864Z,11.43
2019-02-16T18:35:41.893Z,14.00
2019-02-16T18:38:35.670Z,13.38
2019-02-16T18:41:31.994Z,11.50
2019-02-16T18:44:21.359Z,10.58
2019-02-16T18:47:11.816Z,10.25
2019-02-16T18:49:50.566Z,10.58
2019-02-16T18:52:41.140Z,11.00
2019-02-16T18:55:27.539Z,9.55
2019-02-16T18:58:04.618Z,9.50
2019-02-16T19:00:52.251Z,10.60
2019-02-16T19:04:00.779Z,10.55
2019-02-16T19:06:49.838Z,10.53
2019-02-16T19:12:52.115Z,11.50
2019-02-16T19:15:42.427Z,10.45
2019-02-16T19:18:38.315Z,10.97
2019-02-16T19:21:16.672Z,10.50
2019-02-16T19:23:59.854Z,12.15
2019-02-16T19:26:48.724Z,12.10
2019-02-16T19:29:38.945Z,11.22
2019-02-16T19:32:32.229Z,12.93
2019-02-16T19:35:25.469Z,12.40
2019-02-16T19:38:11.584Z,12.95
2019-02-16T19:40:58.461Z,12.53
2019-02-16T19:43:41.226Z,12.50
2019-02-16T19:46:34.449Z,13.32
2019-02-16T19:49:27.489Z,12.45
2019-02-16T19:52:17.724Z,13.05
2019-02-16T19:54:57.631Z,12.93
2019-02-16T19:57:42.412Z,12.90
2019-02-16T20:00:35.975Z,11.90
2019-02-16T20:03:24.068Z,11.97
2019-02-16T20:06:12.984Z,12.40
2019-02-16T20:09:02.135Z,11.33
2019-02-16T20:11:43.076Z,12.77
2019-02-16T20:14:26.957Z,11.50
2019-02-16T20:17:15.893Z,12.33
2019-02-16T20:20:06.324Z,13.33
2019-02-16T20:22:59.434Z,13.40
2019-02-16T20:25:50.002Z,14.70
2019-02-16T20:28:42.030Z,14.20
2019-02-16T20:31:32.290Z,13.30
2019-02-16T20:34:19.365Z,14.17
2019-02-16T20:36:58.554Z,13.60
2019-02-16T20:39:49.051Z,14.20
2019-02-16T20:42:57.459Z,15.13
2019-02-16T20:45:40.650Z,15.23
2019-02-16T20:48:49.183Z,15.30
2019-02-16T20:51:49.024Z,16.07
2019-02-16T20:54:26.124Z,15.53
2019-02-16T20:57:16.087Z,15.20
2019-02-16T20:59:59.236Z,16.07
2019-02-16T21:02:55.839Z,16.23
2019-02-16T21:05:42.053Z,18.60
2019-02-16T21:08:38.246Z,18.60
2019-02-16T21:11:27.556Z,18.43
2019-02-16T21:14:08.038Z,17.87
2019-02-16T21:16:56.793Z,18.80
2019-02-16T21:19:46.166Z,18.60
2019-02-16T21:22:56.159Z,18.50
2019-02-16T21:25:46.431Z,17.83
2019-02-16T21:28:37.226Z,16.60
2019-02-16T21:31:32.927Z,18.33
2019-02-16T21:34:12.385Z,17.63
2019-02-16T21:37:12.000Z,19.93
2019-02-16T21:39:57.252Z,18.67
2019-02-16T21:42:46.274Z,19.87
2019-02-16T21:45:32.179Z,21.00
2019-02-16T21:48:40.536Z,19.73
2019-02-16T21:51:34.513Z,21.47
2019-02-16T21:54:27.985Z,20.23
2019-02-16T21:57:09.256Z,21.37
2019-02-16T22:00:04.579Z,21.67
2019-02-16T22:02:58.417Z,21.90
2019-02-16T22:05:46.640Z,21.33
2019-02-16T22:08:32.435Z,21.47
2019-02-16T22:11:16.651Z,22.43
2019-02-16T22:13:48.021Z,22.97
2019-02-16T22:16:19.745Z,21.73
2019-02-16T22:18:51.124Z,21.53
2019-02-16T22:21:23.404Z,23.17
2019-02-16T22:23:54.634Z,24.97
2019-02-16T22:26:25.904Z,24.93
2019-02-16T22:28:57.159Z,24.87
2019-02-16T22:31:28.787Z,25.70
2019-02-16T22:34:00.135Z,26.67
2019-02-16T22:36:31.627Z,26.80
2019-02-16T22:39:02.839Z,24.77
2019-02-16T22:41:34.468Z,25.63
2019-02-16T22:44:05.721Z,26.47
2019-02-16T22:46:36.914Z,25.67
2019-02-16T22:49:08.060Z,26.83
2019-02-16T22:51:39.388Z,26.67
2019-02-16T22:54:10.576Z,27.07
2019-02-16T22:56:41.767Z,25.13
2019-02-16T22:59:13.032Z,25.47
2019-02-16T23:01:44.192Z,27.00
2019-02-16T23:04:15.560Z,26.30
2019-02-16T23:06:46.951Z,26.27
2019-02-16T23:09:30.541Z,25.70
2019-02-16T23:12:01.784Z,27.77
2019-02-16T23:14:34.054Z,28.27
2019-02-16T23:17:05.537Z,27.43
2019-02-16T23:19:36.663Z,26.83
2019-02-16T23:22:07.902Z,28.23
2019-02-16T23:24:39.173Z,26.80
2019-02-16T23:27:10.421Z,26.90
2019-02-16T23:29:41.833Z,26.37
2019-02-16T23:32:14.037Z,27.10
2019-02-16T23:34:45.181Z,27.00
2019-02-16T23:37:16.443Z,26.50
2019-02-16T23:39:47.725Z,27.73
2019-02-16T23:42:18.896Z,29.40
2019-02-16T23:44:50.051Z,27.97
2019-02-16T23:47:21.231Z,27.47
2019-02-16T23:49:52.423Z,26.83
2019-02-16T23:52:25.161Z,27.43
2019-02-16T23:54:56.602Z,29.43
2019-02-16T23:57:27.799Z,27.97
2019-02-16T23:59:58.969Z,29.97
